Terminal Aerodrome Forecast
Issued by NWS Albany, NY

Home | Current Version | Previous Version | Text Only | Print | Product List | Glossary On
Versions: 1 2 3 4 5 6 7 8 9 10 11 12 13
000
FTUS41 KALY 221700 RRA
TAFPOU
TAF
KPOU 221744Z 2218/2318 25006KT P6SM SKC
     FM222100 19006KT P6SM BKN050
     FM230200 VRB02KT P6SM SKC
     FM230700 18002KT 4SM BR SKC
     FM231000 18002KT 2SM BR FEW250
     FM231300 19008KT 6SM HZ SCT250=

USA.gov is the U.S. government's official web portal to all federal, state and local government web resources and services.